createdAt,value
2023-03-27T00:03:18.386Z,97505.02
2023-03-27T00:08:26.533Z,97502.98
2023-03-27T00:13:34.919Z,97502.73
2023-03-27T00:18:42.768Z,97498.34
2023-03-27T00:23:50.828Z,97491.52
2023-03-27T00:28:58.119Z,97490.32
2023-03-27T00:34:05.534Z,97487.41
2023-03-27T00:45:16.265Z,97486.44
2023-03-27T00:50:26.136Z,97486.68
2023-03-27T00:55:33.853Z,97485.10
2023-03-27T01:00:38.294Z,97485.77
2023-03-27T01:05:43.656Z,97485.01
2023-03-27T01:10:58.975Z,97474.89
2023-03-27T01:19:38.806Z,97461.56
2023-03-27T01:25:13.953Z,97450.86
2023-03-27T01:30:28.880Z,97445.35
2023-03-27T01:36:18.377Z,97434.48
2023-03-27T01:41:31.793Z,97427.84
2023-03-27T01:46:46.629Z,97420.60
2023-03-27T01:52:01.585Z,97405.13
2023-03-27T01:57:16.671Z,97401.69
2023-03-27T02:02:30.188Z,97396.81
2023-03-27T02:07:42.861Z,97401.46
2023-03-27T02:12:56.335Z,97393.52
2023-03-27T02:18:06.407Z,97389.44
2023-03-27T02:23:14.297Z,97385.98
2023-03-27T02:28:46.388Z,97379.02
2023-03-27T02:34:16.973Z,97381.17
2023-03-27T02:39:34.009Z,97380.48
2023-03-27T02:44:51.874Z,97385.15
2023-03-27T02:50:04.787Z,97380.16
2023-03-27T02:55:17.735Z,97382.08
2023-03-27T03:00:28.954Z,97385.96
2023-03-27T03:05:38.309Z,97388.47
2023-03-27T03:10:49.917Z,97392.45
2023-03-27T03:15:57.867Z,97400.45
2023-03-27T03:21:06.102Z,97404.86
2023-03-27T03:26:13.621Z,97410.16
2023-03-27T03:31:23.107Z,97406.34
2023-03-27T03:36:31.343Z,97407.59
2023-03-27T03:41:38.893Z,97414.64
2023-03-27T03:46:46.491Z,97411.83
2023-03-27T03:52:04.248Z,97407.73
2023-03-27T03:57:12.884Z,97400.77
2023-03-27T04:02:28.945Z,97400.28
2023-03-27T04:07:37.223Z,97398.30
2023-03-27T04:12:49.928Z,97397.25
2023-03-27T04:17:58.325Z,97396.00
2023-03-27T04:23:06.697Z,97392.96
2023-03-27T04:28:16.965Z,97394.13
2023-03-27T04:33:24.399Z,97399.02
2023-03-27T04:38:32.187Z,97394.23
2023-03-27T04:43:40.567Z,97389.53
2023-03-27T04:48:48.488Z,97389.50
2023-03-27T04:53:56.843Z,97388.44
2023-03-27T04:59:06.303Z,97389.36
2023-03-27T05:04:15.359Z,97387.69
2023-03-27T05:09:23.283Z,97391.33
2023-03-27T05:14:30.990Z,97392.95
2023-03-27T05:19:39.345Z,97393.35
2023-03-27T05:24:47.272Z,97390.76
2023-03-27T05:29:56.274Z,97385.98
2023-03-27T05:35:07.123Z,97388.42
2023-03-27T05:48:50.672Z,97395.04
2023-03-27T05:54:01.107Z,97399.60
2023-03-27T05:59:09.473Z,97401.01
2023-03-27T06:04:20.899Z,97412.61
2023-03-27T06:09:29.586Z,97418.73
2023-03-27T06:14:38.499Z,97425.79
2023-03-27T06:19:46.543Z,97432.55
2023-03-27T06:24:55.299Z,97435.73
2023-03-27T06:30:02.895Z,97442.68
2023-03-27T06:35:11.741Z,97444.98
2023-03-27T06:40:23.326Z,97451.71
2023-03-27T06:45:33.571Z,97452.73
2023-03-27T06:50:42.054Z,97451.27
2023-03-27T06:55:51.144Z,97449.46
2023-03-27T07:00:58.792Z,97450.13
2023-03-27T07:06:06.948Z,97456.27
2023-03-27T07:11:14.892Z,97459.05
2023-03-27T07:16:24.157Z,97462.17
2023-03-27T07:21:32.628Z,97462.89
2023-03-27T07:26:41.324Z,97465.85
2023-03-27T07:37:00.864Z,97466.96
2023-03-27T07:42:10.147Z,97472.91
2023-03-27T07:47:19.157Z,97478.48
2023-03-27T07:52:27.798Z,97476.95
2023-03-27T07:57:54.964Z,97476.19
2023-03-27T08:03:10.947Z,97476.44
2023-03-27T08:08:19.198Z,97482.07
2023-03-27T08:13:26.805Z,97489.54
2023-03-27T08:18:34.695Z,97495.98
2023-03-27T08:23:43.145Z,97501.19
2023-03-27T08:28:54.457Z,97501.36
2023-03-27T08:34:02.594Z,97499.42
2023-03-27T08:39:10.178Z,97504.01
2023-03-27T08:44:21.427Z,97504.66
2023-03-27T08:49:33.124Z,97503.10
2023-03-27T08:54:41.969Z,97501.79
2023-03-27T08:59:51.172Z,97508.83
2023-03-27T09:05:04.504Z,97521.02
2023-03-27T09:10:22.871Z,97528.11
2023-03-27T09:15:34.073Z,97528.92
2023-03-27T09:20:47.596Z,97531.35
2023-03-27T09:25:59.706Z,97537.14
2023-03-27T09:31:22.809Z,97533.42
2023-03-27T09:36:30.605Z,97538.02
2023-03-27T09:41:44.434Z,97541.00
2023-03-27T09:46:58.229Z,97549.52
2023-03-27T09:52:08.022Z,97568.30
2023-03-27T09:57:16.964Z,97578.60
2023-03-27T10:02:28.603Z,97586.02
2023-03-27T10:07:36.243Z,97586.39
2023-03-27T10:12:45.193Z,97590.83
2023-03-27T10:17:53.185Z,97594.50
2023-03-27T10:23:04.070Z,97600.81
2023-03-27T10:28:19.405Z,97614.23
2023-03-27T10:33:35.508Z,97619.36
2023-03-27T10:38:45.064Z,97623.01
2023-03-27T10:43:54.095Z,97626.05
2023-03-27T10:49:14.658Z,97632.86
2023-03-27T10:54:45.746Z,97644.59
2023-03-27T10:59:59.609Z,97649.78
2023-03-27T11:05:13.992Z,97655.58
2023-03-27T11:10:26.498Z,97669.02
2023-03-27T11:15:41.397Z,97675.75
2023-03-27T11:20:53.913Z,97679.46
2023-03-27T11:26:05.285Z,97697.96
2023-03-27T11:31:24.393Z,97730.02
2023-03-27T11:36:42.084Z,97746.69
2023-03-27T11:46:22.864Z,97773.12
2023-03-27T11:51:43.522Z,97791.13
2023-03-27T11:56:55.819Z,97800.75
2023-03-27T12:02:14.947Z,97806.13
2023-03-27T12:07:36.397Z,97812.60
2023-03-27T12:13:03.386Z,97828.60
2023-03-27T12:18:35.266Z,97859.12
2023-03-27T12:24:13.648Z,97869.79
2023-03-27T12:29:43.785Z,97899.92
2023-03-27T12:34:56.901Z,97913.70
2023-03-27T12:40:14.688Z,97926.94
2023-03-27T12:45:24.958Z,97936.36
2023-03-27T12:50:37.150Z,97946.09
2023-03-27T12:55:45.178Z,97964.27
2023-03-27T13:01:00.984Z,97982.56
2023-03-27T13:06:20.929Z,97997.50
2023-03-27T13:11:43.669Z,98019.19
2023-03-27T13:17:23.350Z,98032.40
2023-03-27T13:22:53.806Z,98043.19
2023-03-27T13:28:31.496Z,98056.52
2023-03-27T13:33:48.522Z,98060.32
2023-03-27T13:39:22.644Z,98069.95
2023-03-27T13:44:39.780Z,98091.81
2023-03-27T13:50:14.522Z,98101.16
2023-03-27T13:55:49.218Z,98119.76
2023-03-27T14:01:15.480Z,98127.35
2023-03-27T14:07:14.131Z,98134.19
2023-03-27T14:12:27.103Z,98152.11
2023-03-27T14:17:56.800Z,98156.02
2023-03-27T14:23:11.188Z,98163.33
2023-03-27T14:28:33.174Z,98169.45
2023-03-27T14:33:49.699Z,98183.85
2023-03-27T14:39:01.445Z,98199.58
2023-03-27T14:44:09.536Z,98212.33
2023-03-27T14:49:22.640Z,98219.32
2023-03-27T14:54:39.304Z,98226.50
2023-03-27T14:59:56.870Z,98242.67
2023-03-27T15:05:12.370Z,98255.18
2023-03-27T15:10:26.409Z,98270.97
2023-03-27T15:15:40.499Z,98282.27
2023-03-27T15:20:50.596Z,98296.50
2023-03-27T15:26:02.939Z,98301.33
2023-03-27T15:31:11.952Z,98322.34
2023-03-27T15:36:27.759Z,98325.65
2023-03-27T15:41:44.808Z,98334.02
2023-03-27T15:46:56.030Z,98337.50
2023-03-27T15:52:24.592Z,98341.67
2023-03-27T15:57:32.473Z,98350.85
2023-03-27T16:02:41.340Z,98361.96
2023-03-27T16:07:50.263Z,98365.65
2023-03-27T16:13:03.200Z,98373.77
2023-03-27T16:18:19.400Z,98378.77
2023-03-27T16:23:26.871Z,98391.30
2023-03-27T16:28:35.167Z,98395.61
2023-03-27T16:33:45.583Z,98404.36
2023-03-27T16:38:53.991Z,98412.45
2023-03-27T16:44:01.480Z,98420.03
2023-03-27T16:49:09.074Z,98434.52
2023-03-27T16:54:16.720Z,98441.86
2023-03-27T16:59:25.033Z,98453.02
2023-03-27T17:04:32.991Z,98462.88
2023-03-27T17:09:41.432Z,98477.45
2023-03-27T17:14:49.605Z,98479.89
2023-03-27T17:19:58.626Z,98482.69
2023-03-27T17:25:07.006Z,98485.75
2023-03-27T17:30:21.408Z,98497.87
2023-03-27T17:35:35.831Z,98510.60
2023-03-27T17:40:44.433Z,98515.71
2023-03-27T17:45:52.342Z,98522.69
2023-03-27T17:51:08.738Z,98529.46
2023-03-27T17:56:18.321Z,98534.17
2023-03-27T18:01:28.002Z,98542.73
2023-03-27T18:06:36.939Z,98551.11
2023-03-27T18:11:44.631Z,98560.17
2023-03-27T18:16:52.496Z,98569.27
2023-03-27T18:22:00.996Z,98571.41
2023-03-27T18:27:10.132Z,98572.59
2023-03-27T18:32:17.815Z,98584.98
2023-03-27T18:37:26.242Z,98590.23
2023-03-27T18:42:33.660Z,98599.52
2023-03-27T18:47:43.578Z,98603.05
2023-03-27T18:52:52.293Z,98601.70
2023-03-27T18:57:59.782Z,98612.34
2023-03-27T19:03:09.866Z,98622.88
2023-03-27T19:08:18.611Z,98631.84
2023-03-27T19:13:26.957Z,98640.16
2023-03-27T19:18:34.291Z,98638.15
2023-03-27T19:23:42.558Z,98639.00
2023-03-27T19:28:51.008Z,98643.98
2023-03-27T19:33:58.443Z,98645.84
2023-03-27T19:39:06.354Z,98643.84
2023-03-27T19:44:16.102Z,98646.44
2023-03-27T19:49:24.913Z,98650.02
2023-03-27T19:54:32.223Z,98648.63
2023-03-27T19:59:38.067Z,98653.22
2023-03-27T20:04:45.627Z,98659.80
2023-03-27T20:09:53.455Z,98660.69
2023-03-27T20:15:11.135Z,98658.88
2023-03-27T20:20:20.145Z,98663.02
2023-03-27T20:25:30.685Z,98665.08
2023-03-27T20:30:41.607Z,98665.42
2023-03-27T20:35:49.212Z,98670.63
2023-03-27T20:40:58.052Z,98671.61
2023-03-27T20:46:07.404Z,98675.70
2023-03-27T20:51:17.886Z,98679.81
2023-03-27T20:56:26.113Z,98680.84
2023-03-27T21:01:34.652Z,98684.13
2023-03-27T21:06:43.321Z,98685.23
2023-03-27T21:11:51.681Z,98689.50
2023-03-27T21:16:59.198Z,98695.17
2023-03-27T21:22:06.822Z,98694.46
2023-03-27T21:27:15.395Z,98696.76
2023-03-27T21:32:23.334Z,98697.60
2023-03-27T21:37:30.771Z,98702.02
2023-03-27T21:42:38.370Z,98704.55
2023-03-27T21:47:47.875Z,98705.05
2023-03-27T21:52:55.860Z,98708.98
2023-03-27T21:58:03.470Z,98709.48
2023-03-27T22:03:11.306Z,98712.80
2023-03-27T22:08:19.422Z,98716.05
2023-03-27T22:13:27.717Z,98723.55
2023-03-27T22:18:35.846Z,98725.14
2023-03-27T22:23:43.321Z,98730.48
2023-03-27T22:28:52.828Z,98730.48
2023-03-27T22:34:04.486Z,98732.05
2023-03-27T22:39:12.425Z,98731.19
2023-03-27T22:44:19.944Z,98732.98
2023-03-27T22:49:27.652Z,98738.85
2023-03-27T22:54:35.260Z,98742.08
2023-03-27T22:59:42.666Z,98748.49
2023-03-27T23:04:50.301Z,98748.58
2023-03-27T23:09:57.981Z,98753.17
2023-03-27T23:15:06.261Z,98751.29
2023-03-27T23:20:15.448Z,98750.64
2023-03-27T23:25:23.258Z,98754.39
2023-03-27T23:30:31.193Z,98764.77
2023-03-27T23:35:38.734Z,98766.29
2023-03-27T23:40:46.549Z,98763.04
2023-03-27T23:45:56.073Z,98764.71
2023-03-27T23:51:03.868Z,98760.21
2023-03-27T23:56:12.851Z,98758.61
